createdAt,value
2019-05-14T00:02:25.356Z,100775.79
2019-05-14T00:04:51.507Z,100777.14
2019-05-14T00:07:18.006Z,100776.15
2019-05-14T00:09:44.121Z,100781.41
2019-05-14T00:12:11.343Z,100775.06
2019-05-14T00:14:40.360Z,100778.00
2019-05-14T00:17:06.139Z,100777.18
2019-05-14T00:19:33.366Z,100770.65
2019-05-14T00:21:59.519Z,100779.30
2019-05-14T00:24:26.407Z,100769.23
2019-05-14T00:26:52.760Z,100763.47
2019-05-14T00:29:18.862Z,100767.02
2019-05-14T00:31:44.990Z,100773.73
2019-05-14T00:34:11.358Z,100768.44
2019-05-14T00:36:37.384Z,100761.32
2019-05-14T00:39:05.210Z,100766.85
2019-05-14T00:41:31.584Z,100771.00
2019-05-14T00:43:57.755Z,100766.85
2019-05-14T00:46:23.988Z,100762.53
2019-05-14T00:48:51.400Z,100763.12
2019-05-14T00:51:17.733Z,100767.88
2019-05-14T00:53:43.862Z,100774.38
2019-05-14T00:56:11.047Z,100769.62
2019-05-14T00:58:37.346Z,100777.53
2019-05-14T01:01:03.614Z,100771.62
2019-05-14T01:03:32.168Z,100776.94
2019-05-14T01:05:58.321Z,100774.56
2019-05-14T01:08:24.542Z,100770.41
2019-05-14T01:10:51.346Z,100773.00
2019-05-14T01:13:17.555Z,100770.23
2019-05-14T01:15:43.699Z,100764.29
2019-05-14T01:18:12.136Z,100763.50
2019-05-14T01:20:38.395Z,100756.41
2019-05-14T01:23:04.742Z,100761.32
2019-05-14T01:25:31.842Z,100777.77
2019-05-14T01:27:58.510Z,100766.73
2019-05-14T01:30:24.826Z,100761.03
2019-05-14T01:32:51.428Z,100760.06
2019-05-14T01:35:17.614Z,100746.27
2019-05-14T01:37:43.625Z,100749.03
2019-05-14T01:40:11.466Z,100747.09
2019-05-14T01:42:37.892Z,100750.06
2019-05-14T01:45:04.668Z,100748.30
2019-05-14T01:47:31.840Z,100750.89
2019-05-14T01:49:58.469Z,100753.27
2019-05-14T01:52:24.726Z,100752.30
2019-05-14T01:54:51.493Z,100750.73
2019-05-14T01:57:18.066Z,100751.73
2019-05-14T01:59:44.214Z,100754.70
2019-05-14T02:02:11.658Z,100745.09
2019-05-14T02:04:38.382Z,100750.64
2019-05-14T02:07:05.249Z,100747.29
2019-05-14T02:09:32.882Z,100744.53
2019-05-14T02:12:02.186Z,100749.70
2019-05-14T02:14:31.447Z,100754.45
2019-05-14T02:16:57.676Z,100756.86
2019-05-14T02:19:23.905Z,100756.30
2019-05-14T02:21:51.413Z,100745.27
2019-05-14T02:24:17.711Z,100749.23
2019-05-14T02:26:43.860Z,100756.16
2019-05-14T02:29:12.302Z,100749.08
2019-05-14T02:31:39.269Z,100753.83
2019-05-14T02:34:10.196Z,100753.27
2019-05-14T02:36:36.395Z,100750.13
2019-05-14T02:39:04.982Z,100747.60
2019-05-14T02:41:31.728Z,100747.19
2019-05-14T02:43:59.361Z,100738.91
2019-05-14T02:46:25.810Z,100731.03
2019-05-14T02:48:52.226Z,100736.75
2019-05-14T02:51:19.807Z,100733.02
2019-05-14T02:53:49.566Z,100730.88
2019-05-14T02:56:15.958Z,100725.94
2019-05-14T02:58:42.212Z,100729.85
2019-05-14T03:01:09.476Z,100718.63
2019-05-14T03:03:36.180Z,100727.70
2019-05-14T03:06:02.752Z,100719.42
2019-05-14T03:08:30.496Z,100719.42
2019-05-14T03:10:59.965Z,100720.01
2019-05-14T03:13:25.191Z,100722.38
2019-05-14T03:15:51.485Z,100726.75
2019-05-14T03:18:19.850Z,100508.03
2019-05-14T03:20:49.788Z,100727.19
2019-05-14T03:23:18.647Z,100727.61
2019-05-14T03:25:42.690Z,100727.23
2019-05-14T03:28:09.430Z,100727.66
2019-05-14T03:30:35.796Z,100728.49
2019-05-14T03:33:03.602Z,100724.55
2019-05-14T03:35:41.601Z,100461.73
2019-05-14T03:38:00.420Z,100726.73
2019-05-14T03:40:29.197Z,100725.98
2019-05-14T03:42:54.287Z,100735.63
2019-05-14T03:45:20.654Z,100732.06
2019-05-14T03:47:50.134Z,100736.59
2019-05-14T03:50:14.853Z,100724.17
2019-05-14T03:52:41.748Z,100730.27
2019-05-14T03:55:09.350Z,100719.56
2019-05-14T03:57:36.007Z,100738.67
2019-05-14T04:00:06.027Z,100719.73
2019-05-14T04:02:32.440Z,100725.25
2019-05-14T04:04:59.962Z,100731.36
2019-05-14T04:07:30.418Z,100729.98
2019-05-14T04:09:59.321Z,100732.17
2019-05-14T04:12:29.249Z,100728.05
2019-05-14T04:14:59.613Z,100750.54
2019-05-14T04:17:36.143Z,100734.41
2019-05-14T04:19:55.527Z,100718.66
2019-05-14T04:22:22.762Z,100731.66
2019-05-14T04:24:50.858Z,100742.30
2019-05-14T04:27:20.266Z,100721.43
2019-05-14T04:29:50.173Z,100728.33
2019-05-14T04:32:20.059Z,100733.23
2019-05-14T04:34:49.850Z,100749.02
2019-05-14T04:37:16.044Z,100727.30
2019-05-14T04:39:42.853Z,100729.86
2019-05-14T04:42:09.878Z,100753.48
2019-05-14T04:44:40.012Z,100740.63
2019-05-14T04:47:22.881Z,100736.07
2019-05-14T04:49:32.749Z,100730.52
2019-05-14T04:51:59.715Z,100730.27
2019-05-14T04:54:26.137Z,100737.35
2019-05-14T04:56:53.502Z,100734.75
2019-05-14T04:59:19.510Z,100734.91
2019-05-14T05:01:49.015Z,100737.47
2019-05-14T05:04:14.320Z,100764.85
2019-05-14T05:06:40.485Z,100730.16
2019-05-14T05:09:09.388Z,100733.09
2019-05-14T05:11:39.427Z,100738.39
2019-05-14T05:14:04.581Z,100733.05
2019-05-14T05:16:31.588Z,100521.20
2019-05-14T05:18:59.392Z,100736.34
2019-05-14T05:21:28.154Z,100731.56
2019-05-14T05:23:54.428Z,100735.88
2019-05-14T05:26:20.883Z,100731.30
2019-05-14T05:29:00.087Z,100746.41
2019-05-14T05:31:15.190Z,100736.30
2019-05-14T05:33:41.650Z,100743.39
2019-05-14T05:36:09.450Z,100735.24
2019-05-14T05:38:35.966Z,100740.16
2019-05-14T05:41:02.865Z,100739.50
2019-05-14T05:43:29.031Z,100726.58
2019-05-14T05:45:55.340Z,100739.72
2019-05-14T05:48:21.931Z,100740.27
2019-05-14T05:50:48.567Z,100738.48
2019-05-14T05:53:14.968Z,100735.67
2019-05-14T05:55:41.557Z,100736.41
2019-05-14T05:58:08.679Z,100732.77
2019-05-14T06:00:40.044Z,100732.11
2019-05-14T06:03:10.175Z,100736.98
2019-05-14T06:05:34.463Z,100741.30
2019-05-14T06:08:01.185Z,100732.92
2019-05-14T06:10:29.188Z,100736.62
2019-05-14T06:12:55.471Z,100734.56
2019-05-14T06:15:21.774Z,100734.52
2019-05-14T06:17:49.186Z,100735.41
2019-05-14T06:20:15.744Z,100731.50
2019-05-14T06:22:42.159Z,100729.48
2019-05-14T06:25:10.924Z,100726.71
2019-05-14T06:27:38.041Z,100724.91
2019-05-14T06:30:05.991Z,100752.55
2019-05-14T06:32:32.407Z,100735.47
2019-05-14T06:34:59.419Z,100728.45
2019-05-14T06:37:25.822Z,100731.94
2019-05-14T06:39:52.476Z,100727.91
2019-05-14T06:42:19.321Z,100727.27
2019-05-14T06:44:45.652Z,100709.92
2019-05-14T06:47:12.085Z,100721.09
2019-05-14T06:49:38.704Z,100713.55
2019-05-14T06:52:05.272Z,100717.66
2019-05-14T06:54:31.583Z,100712.85
2019-05-14T06:56:58.311Z,100714.23
2019-05-14T06:59:25.039Z,100719.84
2019-05-14T07:01:51.215Z,100718.20
2019-05-14T07:04:18.180Z,100729.32
2019-05-14T07:06:44.590Z,100719.80
2019-05-14T07:09:10.659Z,100715.95
2019-05-14T07:11:38.900Z,100725.79
2019-05-14T07:14:08.174Z,100716.23
2019-05-14T07:16:33.220Z,100714.70
2019-05-14T07:18:59.737Z,100708.31
2019-05-14T07:21:25.915Z,100713.48
2019-05-14T07:23:52.713Z,100713.05
2019-05-14T07:26:19.662Z,100706.67
2019-05-14T07:28:48.581Z,100713.62
2019-05-14T07:31:14.200Z,100714.34
2019-05-14T07:33:40.819Z,100713.85
2019-05-14T07:36:08.809Z,100531.81
2019-05-14T07:38:35.198Z,100707.63
2019-05-14T07:41:01.462Z,100706.49
2019-05-14T07:43:28.860Z,100508.97
2019-05-14T07:45:55.054Z,100697.63
2019-05-14T07:48:21.129Z,100693.48
2019-05-14T07:50:51.302Z,100692.13
2019-05-14T07:53:17.878Z,100689.14
2019-05-14T07:55:43.886Z,100691.11
2019-05-14T07:58:10.121Z,100695.44
2019-05-14T08:00:36.331Z,100688.36
2019-05-14T08:03:03.047Z,100694.02
2019-05-14T08:05:29.211Z,100693.06
2019-05-14T08:07:55.866Z,100683.51
2019-05-14T08:10:22.340Z,100680.39
2019-05-14T08:12:48.720Z,100588.00
2019-05-14T08:15:21.535Z,100529.09
2019-05-14T08:17:44.099Z,100684.37
2019-05-14T08:20:11.417Z,100672.17
2019-05-14T08:22:39.081Z,100670.95
2019-05-14T08:25:08.545Z,100671.45
2019-05-14T08:27:35.140Z,100672.93
2019-05-14T08:30:05.389Z,100673.81
2019-05-14T08:32:32.905Z,100674.33
2019-05-14T08:35:00.351Z,100668.58
2019-05-14T08:37:27.953Z,100672.24
2019-05-14T08:39:55.671Z,100672.43
2019-05-14T08:42:22.008Z,100671.20
2019-05-14T08:44:51.257Z,100697.57
2019-05-14T08:47:18.341Z,100663.44
2019-05-14T08:49:49.403Z,100669.23
2019-05-14T08:52:16.058Z,100667.40
2019-05-14T08:54:42.053Z,100673.89
2019-05-14T08:57:09.780Z,100672.05
2019-05-14T08:59:39.622Z,100665.75
2019-05-14T09:02:06.807Z,100664.37
2019-05-14T09:04:34.682Z,100659.83
2019-05-14T09:07:01.038Z,100676.39
2019-05-14T09:09:29.020Z,100644.84
2019-05-14T09:11:56.074Z,100649.45
2019-05-14T09:14:22.261Z,100507.78
2019-05-14T09:16:51.094Z,100644.30
2019-05-14T09:19:19.268Z,100650.48
2019-05-14T09:21:45.070Z,100650.05
2019-05-14T09:24:11.865Z,100643.19
2019-05-14T09:26:39.107Z,100657.05
2019-05-14T09:29:19.505Z,100646.16
2019-05-14T09:31:39.109Z,100640.25
2019-05-14T09:34:05.444Z,100652.30
2019-05-14T09:36:31.682Z,100647.95
2019-05-14T09:38:58.414Z,100646.38
2019-05-14T09:41:27.745Z,100637.63
2019-05-14T09:43:53.201Z,100637.08
2019-05-14T09:46:19.375Z,100640.05
2019-05-14T09:48:45.645Z,100629.27
2019-05-14T09:51:11.974Z,100627.37
2019-05-14T09:53:38.660Z,100630.30
2019-05-14T09:56:06.049Z,100622.34
2019-05-14T09:58:32.241Z,100620.34
2019-05-14T10:01:02.434Z,100623.50
2019-05-14T10:03:28.863Z,100639.53
2019-05-14T10:05:55.213Z,100619.19
2019-05-14T10:08:22.210Z,100613.73
2019-05-14T10:10:49.009Z,100616.66
2019-05-14T10:13:15.226Z,100613.02
2019-05-14T10:15:41.514Z,100613.28
2019-05-14T10:18:11.744Z,100611.36
2019-05-14T10:20:42.469Z,100613.84
2019-05-14T10:23:04.255Z,100611.32
2019-05-14T10:25:31.017Z,100616.94
2019-05-14T10:27:59.068Z,100407.98
2019-05-14T10:30:25.580Z,100609.09
2019-05-14T10:32:54.031Z,100622.41
2019-05-14T10:35:20.728Z,100598.78
2019-05-14T10:37:47.099Z,100608.98
2019-05-14T10:40:14.516Z,100598.55
2019-05-14T10:42:40.787Z,100601.45
2019-05-14T10:45:12.433Z,100619.94
2019-05-14T10:47:38.854Z,100594.93
2019-05-14T10:50:06.237Z,100595.14
2019-05-14T10:52:32.814Z,100583.86
2019-05-14T10:54:59.319Z,100582.17
2019-05-14T10:57:25.543Z,100576.91
2019-05-14T10:59:51.786Z,100582.07
2019-05-14T11:02:18.777Z,100590.89
2019-05-14T11:04:45.013Z,100574.55
2019-05-14T11:07:11.376Z,100590.74
2019-05-14T11:09:38.230Z,100593.75
2019-05-14T11:12:04.450Z,100585.65
2019-05-14T11:14:31.918Z,100579.19
2019-05-14T11:16:59.254Z,100575.70
2019-05-14T11:19:28.031Z,100568.65
2019-05-14T11:21:53.932Z,100575.13
2019-05-14T11:24:22.259Z,100571.33
2019-05-14T11:26:49.060Z,100575.77
2019-05-14T11:29:18.384Z,100575.61
2019-05-14T11:31:45.079Z,100578.83
2019-05-14T11:34:15.626Z,100567.79
2019-05-14T11:36:49.849Z,100556.59
2019-05-14T11:39:20.420Z,100363.03
2019-05-14T11:41:49.243Z,100357.53
2019-05-14T11:44:15.609Z,100547.67
2019-05-14T11:46:51.352Z,100546.38
2019-05-14T11:49:11.132Z,100549.16
2019-05-14T11:51:59.294Z,100542.23
2019-05-14T11:54:05.967Z,100536.92
2019-05-14T11:56:32.283Z,100542.06
2019-05-14T11:58:59.431Z,100537.41
2019-05-14T12:01:29.843Z,100538.19
2019-05-14T12:03:59.566Z,100532.02
2019-05-14T12:06:24.699Z,100525.97
2019-05-14T12:08:52.382Z,100524.36
2019-05-14T12:11:19.593Z,100523.58
2019-05-14T12:13:48.467Z,100518.05
2019-05-14T12:16:15.437Z,100514.05
2019-05-14T12:18:42.033Z,100359.70
2019-05-14T12:21:09.079Z,100509.34
2019-05-14T12:23:39.146Z,100503.29
2019-05-14T12:26:05.158Z,100501.33
2019-05-14T12:28:31.870Z,100483.77
2019-05-14T12:30:58.505Z,100445.34
2019-05-14T12:33:25.458Z,100487.61
2019-05-14T12:35:55.352Z,100492.23
2019-05-14T12:38:22.494Z,100473.25
2019-05-14T12:40:49.197Z,100472.95
2019-05-14T12:43:18.775Z,100475.19
2019-05-14T12:45:51.025Z,100468.00
2019-05-14T12:48:19.973Z,100463.22
2019-05-14T12:50:50.908Z,100480.02
2019-05-14T12:53:23.109Z,100470.66
2019-05-14T12:55:50.828Z,100454.98
2019-05-14T12:58:20.188Z,100464.57
2019-05-14T13:00:49.380Z,100447.82
2019-05-14T13:03:16.097Z,100449.14
2019-05-14T13:05:43.841Z,100455.81
2019-05-14T13:08:15.350Z,100462.68
2019-05-14T13:10:42.118Z,100454.11
2019-05-14T13:13:08.589Z,100458.03
2019-05-14T13:15:35.731Z,100453.53
2019-05-14T13:18:04.177Z,100446.48
2019-05-14T13:20:38.809Z,100265.08
2019-05-14T13:23:04.927Z,100442.45
2019-05-14T13:25:32.102Z,100437.50
2019-05-14T13:28:08.988Z,100444.93
2019-05-14T13:30:38.227Z,100430.88
2019-05-14T13:33:08.654Z,100257.16
2019-05-14T13:35:35.026Z,100424.81
2019-05-14T13:38:13.923Z,100437.84
2019-05-14T13:40:39.192Z,100421.46
2019-05-14T13:43:06.135Z,100335.36
2019-05-14T13:45:34.651Z,100428.44
2019-05-14T13:48:03.057Z,100408.22
2019-05-14T13:50:31.168Z,100397.70
2019-05-14T13:53:02.696Z,100398.62
2019-05-14T13:55:30.426Z,100397.03
2019-05-14T13:57:59.623Z,100395.96
2019-05-14T14:00:25.521Z,100392.38
2019-05-14T14:02:51.788Z,100395.84
2019-05-14T14:05:20.291Z,100394.44
2019-05-14T14:07:48.563Z,100402.20
2019-05-14T14:10:15.492Z,100396.63
2019-05-14T14:12:41.932Z,100397.00
2019-05-14T14:15:09.901Z,100386.42
2019-05-14T14:17:40.577Z,100387.31
2019-05-14T14:20:15.368Z,100372.02
2019-05-14T14:22:43.155Z,100374.98
2019-05-14T14:25:10.490Z,100379.41
2019-05-14T14:27:40.735Z,100373.80
2019-05-14T14:30:08.990Z,100370.84
2019-05-14T14:32:34.703Z,100371.03
2019-05-14T14:35:01.076Z,100364.98
2019-05-14T14:37:28.653Z,100367.58
2019-05-14T14:39:55.874Z,100363.81
2019-05-14T14:42:24.731Z,100367.14
2019-05-14T14:44:51.096Z,100379.23
2019-05-14T14:47:19.057Z,100364.06
2019-05-14T14:49:45.730Z,100365.41
2019-05-14T14:52:12.766Z,100353.94
2019-05-14T14:54:39.500Z,100351.78
2019-05-14T14:57:08.459Z,100359.02
2019-05-14T14:59:34.956Z,100349.66
2019-05-14T15:02:02.571Z,100344.32
2019-05-14T15:04:29.094Z,100349.81
2019-05-14T15:06:55.305Z,100342.25
2019-05-14T15:09:21.918Z,100341.30
2019-05-14T15:11:49.191Z,100339.38
2019-05-14T15:14:15.349Z,100341.02
2019-05-14T15:16:42.051Z,100348.95
2019-05-14T15:19:09.475Z,100338.96
2019-05-14T15:21:35.693Z,100333.00
2019-05-14T15:24:10.000Z,100336.22
2019-05-14T15:26:33.121Z,100339.98
2019-05-14T15:29:00.752Z,100333.38
2019-05-14T15:31:29.268Z,100323.55
2019-05-14T15:33:55.780Z,100332.50
2019-05-14T15:36:23.826Z,100338.33
2019-05-14T15:38:51.344Z,100309.75
2019-05-14T15:41:20.245Z,100327.66
2019-05-14T15:43:47.070Z,100321.59
2019-05-14T15:46:15.216Z,100319.19
2019-05-14T15:48:42.340Z,100319.67
2019-05-14T15:51:11.472Z,100317.62
2019-05-14T15:53:38.737Z,100316.28
2019-05-14T15:56:08.275Z,100306.08
2019-05-14T15:58:35.954Z,100294.88
2019-05-14T16:01:03.435Z,100302.91
2019-05-14T16:03:29.994Z,100302.97
2019-05-14T16:05:59.819Z,100301.20
2019-05-14T16:08:29.432Z,100299.14
2019-05-14T16:10:55.098Z,100294.77
2019-05-14T16:13:23.491Z,100254.25
2019-05-14T16:15:49.567Z,100288.25
2019-05-14T16:18:19.679Z,100087.95
2019-05-14T16:20:44.239Z,100289.30
2019-05-14T16:23:11.220Z,100094.92
2019-05-14T16:25:38.089Z,100094.42
2019-05-14T16:28:04.439Z,100289.72
2019-05-14T16:30:30.938Z,100295.59
2019-05-14T16:32:59.837Z,100289.31
2019-05-14T16:35:25.853Z,100292.48
2019-05-14T16:37:52.356Z,100284.56
2019-05-14T16:40:19.439Z,100293.55
2019-05-14T16:42:48.463Z,100292.31
2019-05-14T16:45:14.573Z,100288.86
2019-05-14T16:47:40.774Z,100290.19
2019-05-14T16:50:09.744Z,100282.66
2019-05-14T16:52:41.680Z,100288.83
2019-05-14T16:55:20.312Z,100285.34
2019-05-14T16:57:35.713Z,100280.70
2019-05-14T17:00:09.419Z,100292.19
2019-05-14T17:02:34.836Z,100293.39
2019-05-14T17:05:01.220Z,100318.73
2019-05-14T17:07:28.848Z,100302.35
2019-05-14T17:09:55.204Z,100301.48
2019-05-14T17:12:22.889Z,100313.95
2019-05-14T17:14:49.342Z,100292.70
2019-05-14T17:17:16.354Z,100302.66
2019-05-14T17:19:43.478Z,100292.88
2019-05-14T17:22:24.558Z,100296.45
2019-05-14T17:24:40.151Z,100295.23
2019-05-14T17:27:08.784Z,100294.13
2019-05-14T17:29:35.107Z,100292.89
2019-05-14T17:32:02.440Z,100293.66
2019-05-14T17:34:32.266Z,100287.44
2019-05-14T17:37:00.206Z,100290.08
2019-05-14T17:39:26.567Z,100289.44
2019-05-14T17:41:52.678Z,100281.67
2019-05-14T17:44:19.299Z,100290.34
2019-05-14T17:46:45.483Z,100280.57
2019-05-14T17:49:11.951Z,100286.62
2019-05-14T17:51:39.092Z,100286.16
2019-05-14T17:54:06.071Z,100283.66
2019-05-14T17:56:32.508Z,100283.80
2019-05-14T17:58:59.260Z,100277.56
2019-05-14T18:01:28.767Z,100278.92
2019-05-14T18:03:58.433Z,100281.19
2019-05-14T18:06:25.125Z,100275.73
2019-05-14T18:08:51.523Z,100273.22
2019-05-14T18:11:19.115Z,100267.30
2019-05-14T18:13:48.265Z,100271.60
2019-05-14T18:16:14.662Z,100267.64
2019-05-14T18:18:40.917Z,100269.76
2019-05-14T18:21:09.288Z,100267.48
2019-05-14T18:23:39.548Z,100273.91
2019-05-14T18:26:08.669Z,100267.04
2019-05-14T18:28:33.702Z,100275.95
2019-05-14T18:31:00.133Z,100294.16
2019-05-14T18:33:30.802Z,100273.97
2019-05-14T18:36:02.658Z,100272.66
2019-05-14T18:38:29.221Z,100272.13
2019-05-14T18:40:55.712Z,100265.13
2019-05-14T18:43:22.701Z,100264.16
2019-05-14T18:45:49.242Z,100270.30
2019-05-14T18:48:19.411Z,100268.35
2019-05-14T18:50:48.418Z,100267.98
2019-05-14T18:53:14.905Z,100273.95
2019-05-14T18:55:40.928Z,100262.61
2019-05-14T18:58:08.551Z,100267.30
2019-05-14T19:00:38.660Z,100271.86
2019-05-14T19:03:12.203Z,100274.70
2019-05-14T19:05:38.227Z,100269.86
2019-05-14T19:08:04.517Z,100277.81
2019-05-14T19:10:30.959Z,100278.97
2019-05-14T19:12:58.815Z,100275.70
2019-05-14T19:15:25.378Z,100275.30
2019-05-14T19:17:51.634Z,100280.19
2019-05-14T19:20:19.254Z,100276.07
2019-05-14T19:22:48.877Z,100276.57
2019-05-14T19:25:15.147Z,100283.12
2019-05-14T19:27:41.715Z,100283.33
2019-05-14T19:30:08.672Z,100289.87
2019-05-14T19:32:40.719Z,100287.13
2019-05-14T19:35:08.684Z,100291.15
2019-05-14T19:37:35.163Z,100286.13
2019-05-14T19:40:01.962Z,100287.91
2019-05-14T19:42:28.745Z,100312.04
2019-05-14T19:44:59.606Z,100292.29
2019-05-14T19:47:24.593Z,100286.42
2019-05-14T19:49:52.867Z,100293.03
2019-05-14T19:52:19.129Z,100287.75
2019-05-14T19:54:45.382Z,100282.82
2019-05-14T19:57:11.920Z,100289.33
2019-05-14T19:59:38.657Z,100299.13
2019-05-14T20:02:04.985Z,100298.89
2019-05-14T20:04:31.864Z,100291.77
2019-05-14T20:06:59.681Z,100292.57
2019-05-14T20:09:30.311Z,100291.91
2019-05-14T20:11:58.584Z,100296.59
2019-05-14T20:14:28.686Z,100295.88
2019-05-14T20:16:58.332Z,100295.88
2019-05-14T20:19:28.713Z,100293.47
2019-05-14T20:21:58.751Z,100290.61
2019-05-14T20:24:28.271Z,100292.31
2019-05-14T20:27:07.848Z,100287.28
2019-05-14T20:29:28.148Z,100284.66
2019-05-14T20:31:54.906Z,100281.13
2019-05-14T20:34:22.421Z,100277.91
2019-05-14T20:36:50.342Z,100282.38
2019-05-14T20:39:18.222Z,100280.61
2019-05-14T20:41:45.661Z,100273.67
2019-05-14T20:44:13.142Z,100269.92
2019-05-14T20:46:39.774Z,100272.23
2019-05-14T20:49:08.785Z,100273.75
2019-05-14T20:51:35.881Z,100267.16
2019-05-14T20:54:08.898Z,100264.70
2019-05-14T20:56:40.001Z,100269.17
2019-05-14T20:59:08.350Z,100262.39
2019-05-14T21:01:38.832Z,100271.35
2019-05-14T21:04:09.015Z,100268.48
2019-05-14T21:06:39.056Z,100276.14
2019-05-14T21:09:07.880Z,100269.58
2019-05-14T21:11:34.489Z,100286.66
2019-05-14T21:14:03.675Z,100274.70
2019-05-14T21:16:32.198Z,100060.50
2019-05-14T21:19:03.506Z,100275.19
2019-05-14T21:21:30.198Z,100288.52
2019-05-14T21:23:58.644Z,100270.62
2019-05-14T21:26:25.281Z,100268.53
2019-05-14T21:28:51.905Z,100258.38
2019-05-14T21:31:19.544Z,100259.28
2019-05-14T21:33:49.780Z,100257.84
2019-05-14T21:36:15.957Z,100265.06
2019-05-14T21:38:42.287Z,100254.71
2019-05-14T21:41:09.505Z,100261.72
2019-05-14T21:43:35.726Z,100264.82
2019-05-14T21:46:02.046Z,100261.36
2019-05-14T21:48:29.156Z,100259.48
2019-05-14T21:50:55.999Z,100258.40
2019-05-14T21:53:22.453Z,100267.73
2019-05-14T21:55:49.298Z,100259.12
2019-05-14T21:58:15.775Z,100252.93
2019-05-14T22:00:45.076Z,100253.02
2019-05-14T22:03:20.510Z,100252.71
2019-05-14T22:05:44.466Z,100246.86
2019-05-14T22:08:10.783Z,100240.22
2019-05-14T22:10:39.759Z,100251.53
2019-05-14T22:13:05.670Z,100247.84
2019-05-14T22:15:32.495Z,100245.72
2019-05-14T22:18:00.260Z,100254.23
2019-05-14T22:20:28.860Z,100003.72
2019-05-14T22:22:55.548Z,100251.13
2019-05-14T22:25:22.025Z,100242.52
2019-05-14T22:27:49.537Z,100253.38
2019-05-14T22:30:18.188Z,100249.09
2019-05-14T22:32:45.451Z,100247.75
2019-05-14T22:35:12.282Z,100240.11
2019-05-14T22:37:39.023Z,100246.65
2019-05-14T22:40:06.625Z,100239.80
2019-05-14T22:42:32.883Z,100239.03
2019-05-14T22:44:59.295Z,100234.94
2019-05-14T22:47:25.753Z,100228.69
2019-05-14T22:49:51.791Z,100237.78
2019-05-14T22:52:18.959Z,100225.21
2019-05-14T22:54:45.906Z,100231.78
2019-05-14T22:57:12.038Z,100229.05
2019-05-14T22:59:39.197Z,100230.87
2019-05-14T23:02:08.406Z,100228.73
2019-05-14T23:04:34.878Z,100235.23
2019-05-14T23:07:01.340Z,100227.00
2019-05-14T23:09:27.875Z,100231.14
2019-05-14T23:11:55.943Z,100234.51
2019-05-14T23:14:22.219Z,100227.80
2019-05-14T23:16:49.230Z,100235.50
2019-05-14T23:19:15.604Z,100235.55
2019-05-14T23:21:42.119Z,100232.06
2019-05-14T23:24:12.898Z,100240.55
2019-05-14T23:26:39.404Z,100235.09
2019-05-14T23:29:06.519Z,100239.88
2019-05-14T23:31:32.996Z,100228.75
2019-05-14T23:33:59.415Z,100224.08
2019-05-14T23:36:25.560Z,100237.27
2019-05-14T23:38:53.068Z,100230.81
2019-05-14T23:41:19.246Z,100229.46
2019-05-14T23:43:45.543Z,100223.77
2019-05-14T23:46:11.755Z,100228.14
2019-05-14T23:48:39.272Z,100232.88
2019-05-14T23:51:07.945Z,100224.67
2019-05-14T23:53:34.036Z,100218.17
2019-05-14T23:56:00.333Z,100216.05
2019-05-14T23:58:28.747Z,100212.34
